sensor_id;sensor_type;location;lat;lon;timestamp;pressure;altitude;pressure_sealevel;temperature;humidity
30073;BME280;16897;52.422;13.678;2023-07-08T00:03:11;101730.56;;;22.10;34.39
30073;BME280;16897;52.422;13.678;2023-07-08T00:07:13;101693.22;;;21.81;34.28
30073;BME280;16897;52.422;13.678;2023-07-08T00:11:17;101732.63;;;21.97;34.17
30073;BME280;16897;52.422;13.678;2023-07-08T00:15:21;101719.03;;;21.91;34.32
30073;BME280;16897;52.422;13.678;2023-07-08T00:19:23;101678.31;;;21.59;34.55
30073;BME280;16897;52.422;13.678;2023-07-08T00:23:25;101716.59;;;21.78;34.63
30073;BME280;16897;52.422;13.678;2023-07-08T00:27:27;101713.38;;;21.74;34.29
30073;BME280;16897;52.422;13.678;2023-07-08T00:31:29;101718.81;;;21.73;34.55
30073;BME280;16897;52.422;13.678;2023-07-08T00:35:41;101702.38;;;21.58;34.82
30073;BME280;16897;52.422;13.678;2023-07-08T00:39:43;101700.63;;;21.47;34.60
30073;BME280;16897;52.422;13.678;2023-07-08T00:43:49;101709.00;;;21.42;34.71
30073;BME280;16897;52.422;13.678;2023-07-08T00:47:51;101709.63;;;21.35;34.70
30073;BME280;16897;52.422;13.678;2023-07-08T00:51:53;101690.19;;;21.13;34.62
30073;BME280;16897;52.422;13.678;2023-07-08T00:56:16;101706.28;;;21.12;34.73
30073;BME280;16897;52.422;13.678;2023-07-08T01:00:17;101732.16;;;21.19;34.97
30073;BME280;16897;52.422;13.678;2023-07-08T01:04:28;101717.72;;;21.12;34.85
30073;BME280;16897;52.422;13.678;2023-07-08T01:08:30;101718.22;;;21.06;35.21
30073;BME280;16897;52.422;13.678;2023-07-08T01:12:36;101719.22;;;21.05;35.19
30073;BME280;16897;52.422;13.678;2023-07-08T01:16:39;101690.22;;;20.81;34.99
30073;BME280;16897;52.422;13.678;2023-07-08T01:20:41;101720.00;;;20.96;35.13
30073;BME280;16897;52.422;13.678;2023-07-08T01:24:44;101709.84;;;20.90;35.25
30073;BME280;16897;52.422;13.678;2023-07-08T01:28:46;101706.31;;;20.80;35.31
30073;BME280;16897;52.422;13.678;2023-07-08T01:32:54;101703.66;;;20.80;35.28
30073;BME280;16897;52.422;13.678;2023-07-08T01:36:56;101691.84;;;20.72;34.97
30073;BME280;16897;52.422;13.678;2023-07-08T01:41:00;101680.91;;;20.66;35.22
30073;BME280;16897;52.422;13.678;2023-07-08T01:45:03;101696.81;;;20.66;35.51
30073;BME280;16897;52.422;13.678;2023-07-08T01:49:11;101663.91;;;20.46;35.46
30073;BME280;16897;52.422;13.678;2023-07-08T01:53:15;101679.13;;;20.44;35.59
30073;BME280;16897;52.422;13.678;2023-07-08T01:57:18;101700.13;;;20.47;35.44
30073;BME280;16897;52.422;13.678;2023-07-08T02:01:20;101696.63;;;20.35;35.48
30073;BME280;16897;52.422;13.678;2023-07-08T02:05:23;101682.56;;;20.23;35.52
30073;BME280;16897;52.422;13.678;2023-07-08T02:09:25;101679.78;;;20.14;35.44
30073;BME280;16897;52.422;13.678;2023-07-08T02:13:27;101687.16;;;20.10;35.59
30073;BME280;16897;52.422;13.678;2023-07-08T02:17:28;101657.53;;;19.94;35.54
30073;BME280;16897;52.422;13.678;2023-07-08T02:21:30;101686.94;;;20.02;35.85
30073;BME280;16897;52.422;13.678;2023-07-08T02:25:32;101699.94;;;20.05;35.85
30073;BME280;16897;52.422;13.678;2023-07-08T02:29:34;101669.09;;;19.81;35.98
30073;BME280;16897;52.422;13.678;2023-07-08T02:33:36;101681.41;;;19.82;35.65
30073;BME280;16897;52.422;13.678;2023-07-08T02:37:37;101684.06;;;19.82;35.80
30073;BME280;16897;52.422;13.678;2023-07-08T02:41:38;101691.03;;;19.83;36.07
30073;BME280;16897;52.422;13.678;2023-07-08T02:45:40;101695.88;;;19.78;36.05
30073;BME280;16897;52.422;13.678;2023-07-08T02:49:43;101659.09;;;19.51;36.11
30073;BME280;16897;52.422;13.678;2023-07-08T02:53:44;101688.13;;;19.64;36.08
30073;BME280;16897;52.422;13.678;2023-07-08T02:57:46;101682.00;;;19.63;36.13
30073;BME280;16897;52.422;13.678;2023-07-08T03:01:48;101642.94;;;19.32;36.29
30073;BME280;16897;52.422;13.678;2023-07-08T03:05:59;101621.13;;;19.17;36.07
30073;BME280;16897;52.422;13.678;2023-07-08T03:10:01;101684.00;;;19.49;36.19
30073;BME280;16897;52.422;13.678;2023-07-08T03:14:04;101681.59;;;19.45;36.04
30073;BME280;16897;52.422;13.678;2023-07-08T03:18:06;101688.22;;;19.40;36.06
30073;BME280;16897;52.422;13.678;2023-07-08T03:22:10;101669.44;;;19.32;36.46
30073;BME280;16897;52.422;13.678;2023-07-08T03:26:17;101667.59;;;19.21;36.47
30073;BME280;16897;52.422;13.678;2023-07-08T03:30:21;101679.19;;;19.20;36.60
30073;BME280;16897;52.422;13.678;2023-07-08T03:34:25;101688.28;;;19.16;36.28
30073;BME280;16897;52.422;13.678;2023-07-08T03:38:29;101631.25;;;18.76;36.73
30073;BME280;16897;52.422;13.678;2023-07-08T03:42:31;101675.28;;;19.01;36.40
30073;BME280;16897;52.422;13.678;2023-07-08T03:46:33;101630.34;;;18.65;36.51
30073;BME280;16897;52.422;13.678;2023-07-08T03:50:34;101676.69;;;18.94;36.44
30073;BME280;16897;52.422;13.678;2023-07-08T03:54:36;101649.16;;;18.73;36.63
30073;BME280;16897;52.422;13.678;2023-07-08T03:58:37;101669.78;;;18.81;36.69
30073;BME280;16897;52.422;13.678;2023-07-08T04:02:40;101673.28;;;18.81;37.03
30073;BME280;16897;52.422;13.678;2023-07-08T04:06:44;101638.13;;;18.55;36.97
30073;BME280;16897;52.422;13.678;2023-07-08T04:10:47;101664.28;;;18.71;37.08
30073;BME280;16897;52.422;13.678;2023-07-08T04:14:49;101673.19;;;18.70;36.99
30073;BME280;16897;52.422;13.678;2023-07-08T04:18:50;101665.81;;;18.62;36.94
30073;BME280;16897;52.422;13.678;2023-07-08T04:22:54;101692.31;;;18.73;37.27
30073;BME280;16897;52.422;13.678;2023-07-08T04:26:56;101689.06;;;18.70;37.35
30073;BME280;16897;52.422;13.678;2023-07-08T04:30:57;101685.91;;;18.65;37.22
30073;BME280;16897;52.422;13.678;2023-07-08T04:34:59;101690.75;;;18.71;37.17
30073;BME280;16897;52.422;13.678;2023-07-08T04:39:03;101679.78;;;18.64;37.34
30073;BME280;16897;52.422;13.678;2023-07-08T04:43:09;101638.81;;;18.46;37.48
30073;BME280;16897;52.422;13.678;2023-07-08T04:47:13;101670.31;;;18.73;37.37
30073;BME280;16897;52.422;13.678;2023-07-08T04:51:15;101647.22;;;18.64;37.25
30073;BME280;16897;52.422;13.678;2023-07-08T04:55:18;101676.66;;;18.83;37.39
30073;BME280;16897;52.422;13.678;2023-07-08T04:59:23;101650.13;;;18.72;37.42
30073;BME280;16897;52.422;13.678;2023-07-08T05:03:24;101677.19;;;18.99;37.68
30073;BME280;16897;52.422;13.678;2023-07-08T05:07:26;101700.34;;;19.20;37.90
30073;BME280;16897;52.422;13.678;2023-07-08T05:11:28;101686.50;;;19.28;37.85
30073;BME280;16897;52.422;13.678;2023-07-08T05:15:29;101685.69;;;19.38;37.88
30073;BME280;16897;52.422;13.678;2023-07-08T05:19:31;101672.56;;;19.37;37.68
30073;BME280;16897;52.422;13.678;2023-07-08T05:23:32;101679.44;;;19.51;37.86
30073;BME280;16897;52.422;13.678;2023-07-08T05:27:34;101684.78;;;19.73;37.82
30073;BME280;16897;52.422;13.678;2023-07-08T05:31:36;101674.56;;;19.80;38.29
30073;BME280;16897;52.422;13.678;2023-07-08T05:35:37;101655.28;;;19.78;38.36
30073;BME280;16897;52.422;13.678;2023-07-08T05:39:39;101681.50;;;20.15;38.27
30073;BME280;16897;52.422;13.678;2023-07-08T05:43:41;101683.25;;;20.37;38.31
30073;BME280;16897;52.422;13.678;2023-07-08T05:47:42;101675.72;;;20.53;38.54
30073;BME280;16897;52.422;13.678;2023-07-08T05:51:44;101664.31;;;20.73;38.76
30073;BME280;16897;52.422;13.678;2023-07-08T05:55:47;101670.56;;;21.05;38.55
30073;BME280;16897;52.422;13.678;2023-07-08T05:59:49;101672.34;;;21.25;38.93
30073;BME280;16897;52.422;13.678;2023-07-08T06:03:52;101680.50;;;21.54;38.61
30073;BME280;16897;52.422;13.678;2023-07-08T06:07:54;101696.03;;;21.80;38.77
30073;BME280;16897;52.422;13.678;2023-07-08T06:11:55;101698.19;;;22.05;39.04
30073;BME280;16897;52.422;13.678;2023-07-08T06:15:57;101699.56;;;22.30;38.73
30073;BME280;16897;52.422;13.678;2023-07-08T06:19:58;101701.28;;;22.61;39.22
30073;BME280;16897;52.422;13.678;2023-07-08T06:24:00;101692.72;;;22.86;39.02
30073;BME280;16897;52.422;13.678;2023-07-08T06:28:02;101706.88;;;23.16;39.31
30073;BME280;16897;52.422;13.678;2023-07-08T06:32:04;101704.03;;;23.47;38.91
30073;BME280;16897;52.422;13.678;2023-07-08T06:36:06;101706.47;;;23.77;39.25
30073;BME280;16897;52.422;13.678;2023-07-08T06:40:09;101703.25;;;24.01;38.97
30073;BME280;16897;52.422;13.678;2023-07-08T06:44:11;101696.66;;;24.23;39.28
30073;BME280;16897;52.422;13.678;2023-07-08T06:48:13;101692.44;;;24.48;39.06
30073;BME280;16897;52.422;13.678;2023-07-08T06:52:14;101660.94;;;24.52;38.59
30073;BME280;16897;52.422;13.678;2023-07-08T06:56:16;101677.06;;;24.86;38.84
30073;BME280;16897;52.422;13.678;2023-07-08T07:00:18;101669.34;;;25.01;39.01
30073;BME280;16897;52.422;13.678;2023-07-08T07:04:20;101690.09;;;25.25;38.68
30073;BME280;16897;52.422;13.678;2023-07-08T07:08:21;101695.34;;;25.43;38.59
30073;BME280;16897;52.422;13.678;2023-07-08T07:12:24;101701.81;;;25.58;38.40
30073;BME280;16897;52.422;13.678;2023-07-08T07:16:26;101688.81;;;25.72;38.66
30073;BME280;16897;52.422;13.678;2023-07-08T07:20:28;101692.06;;;25.83;38.28
30073;BME280;16897;52.422;13.678;2023-07-08T07:24:30;101694.34;;;26.04;38.49
30073;BME280;16897;52.422;13.678;2023-07-08T07:28:31;101683.50;;;26.14;38.11
30073;BME280;16897;52.422;13.678;2023-07-08T07:32:33;101697.44;;;26.42;37.94
30073;BME280;16897;52.422;13.678;2023-07-08T07:36:36;101675.34;;;26.48;38.09
30073;BME280;16897;52.422;13.678;2023-07-08T07:40:39;101684.78;;;26.77;38.06
30073;BME280;16897;52.422;13.678;2023-07-08T07:44:41;101689.09;;;26.95;38.01
30073;BME280;16897;52.422;13.678;2023-07-08T07:48:42;101691.44;;;27.14;37.67
30073;BME280;16897;52.422;13.678;2023-07-08T07:52:44;101658.41;;;27.13;37.94
30073;BME280;16897;52.422;13.678;2023-07-08T07:56:45;101683.34;;;27.55;37.96
30073;BME280;16897;52.422;13.678;2023-07-08T08:00:47;101683.63;;;27.68;37.72
30073;BME280;16897;52.422;13.678;2023-07-08T08:04:49;101674.03;;;27.82;37.64
30073;BME280;16897;52.422;13.678;2023-07-08T08:08:51;101694.84;;;28.11;37.56
30073;BME280;16897;52.422;13.678;2023-07-08T08:12:52;101682.50;;;28.25;37.27
30073;BME280;16897;52.422;13.678;2023-07-08T08:16:54;101690.97;;;28.45;37.64
30073;BME280;16897;52.422;13.678;2023-07-08T08:20:56;101695.03;;;28.64;37.29
30073;BME280;16897;52.422;13.678;2023-07-08T08:24:58;101684.03;;;28.74;36.95
30073;BME280;16897;52.422;13.678;2023-07-08T08:29:00;101685.84;;;28.96;37.04
30073;BME280;16897;52.422;13.678;2023-07-08T08:33:01;101677.19;;;29.09;37.03
30073;BME280;16897;52.422;13.678;2023-07-08T08:37:04;101691.50;;;29.39;37.16
30073;BME280;16897;52.422;13.678;2023-07-08T08:41:32;101689.06;;;29.59;36.77
30073;BME280;16897;52.422;13.678;2023-07-08T08:45:39;101688.00;;;29.68;36.57
30073;BME280;16897;52.422;13.678;2023-07-08T08:49:50;101690.53;;;29.91;36.95
30073;BME280;16897;52.422;13.678;2023-07-08T08:53:54;101696.53;;;30.08;37.16
30073;BME280;16897;52.422;13.678;2023-07-08T08:58:06;101689.44;;;30.22;36.74
30073;BME280;16897;52.422;13.678;2023-07-08T09:06:35;101669.63;;;30.30;36.07
30073;BME280;16897;52.422;13.678;2023-07-08T09:14:46;101686.28;;;30.55;35.64
30073;BME280;16897;52.422;13.678;2023-07-08T09:19:03;101687.81;;;30.64;35.15
30073;BME280;16897;52.422;13.678;2023-07-08T09:23:23;101676.09;;;30.78;35.40
30073;BME280;16897;52.422;13.678;2023-07-08T09:27:27;101685.59;;;30.96;35.40
30073;BME280;16897;52.422;13.678;2023-07-08T09:31:31;101688.66;;;31.14;34.96
30073;BME280;16897;52.422;13.678;2023-07-08T09:35:42;101682.69;;;31.25;34.89
30073;BME280;16897;52.422;13.678;2023-07-08T09:39:44;101690.50;;;31.42;35.10
30073;BME280;16897;52.422;13.678;2023-07-08T09:43:46;101682.88;;;31.52;34.81
30073;BME280;16897;52.422;13.678;2023-07-08T09:47:52;101670.44;;;31.58;34.95
30073;BME280;16897;52.422;13.678;2023-07-08T09:51:54;101685.31;;;31.82;34.77
30073;BME280;16897;52.422;13.678;2023-07-08T09:55:59;101675.75;;;31.86;34.46
30073;BME280;16897;52.422;13.678;2023-07-08T10:00:11;101674.56;;;32.02;34.27
30073;BME280;16897;52.422;13.678;2023-07-08T10:04:13;101665.88;;;32.06;34.30
30073;BME280;16897;52.422;13.678;2023-07-08T10:08:20;101681.28;;;32.26;34.00
30073;BME280;16897;52.422;13.678;2023-07-08T10:12:21;101672.53;;;32.24;33.70
30073;BME280;16897;52.422;13.678;2023-07-08T10:16:27;101683.38;;;32.37;33.52
30073;BME280;16897;52.422;13.678;2023-07-08T10:20:39;101665.50;;;32.36;33.70
30073;BME280;16897;52.422;13.678;2023-07-08T10:25:05;101672.84;;;32.49;33.41
30073;BME280;16897;52.422;13.678;2023-07-08T10:34:24;101670.34;;;32.60;32.61
30073;BME280;16897;52.422;13.678;2023-07-08T10:38:35;101669.31;;;32.68;32.61
30073;BME280;16897;52.422;13.678;2023-07-08T11:08:42;101639.91;;;33.12;32.14
30073;BME280;16897;52.422;13.678;2023-07-08T11:12:54;101626.78;;;33.15;32.28
30073;BME280;16897;52.422;13.678;2023-07-08T11:17:08;101640.03;;;33.37;32.32
30073;BME280;16897;52.422;13.678;2023-07-08T11:21:22;101641.50;;;33.39;32.04
30073;BME280;16897;52.422;13.678;2023-07-08T11:25:25;101633.53;;;33.51;31.69
30073;BME280;16897;52.422;13.678;2023-07-08T11:29:45;101635.63;;;33.56;31.62
30073;BME280;16897;52.422;13.678;2023-07-08T11:33:48;101641.22;;;33.61;31.41
30073;BME280;16897;52.422;13.678;2023-07-08T11:37:50;101617.50;;;33.56;31.00
30073;BME280;16897;52.422;13.678;2023-07-08T11:41:52;101619.38;;;33.49;30.67
30073;BME280;16897;52.422;13.678;2023-07-08T11:45:56;101621.66;;;33.52;30.60
30073;BME280;16897;52.422;13.678;2023-07-08T11:50:01;101613.75;;;33.57;30.63
30073;BME280;16897;52.422;13.678;2023-07-08T11:58:19;101590.38;;;33.63;30.46
30073;BME280;16897;52.422;13.678;2023-07-08T12:02:21;101603.19;;;33.81;30.33
30073;BME280;16897;52.422;13.678;2023-07-08T12:10:34;101601.25;;;33.95;30.38
30073;BME280;16897;52.422;13.678;2023-07-08T12:14:37;101605.34;;;34.04;30.37
30073;BME280;16897;52.422;13.678;2023-07-08T12:18:38;101601.78;;;34.10;30.37
30073;BME280;16897;52.422;13.678;2023-07-08T12:22:47;101570.09;;;34.04;30.23
30073;BME280;16897;52.422;13.678;2023-07-08T12:26:49;101592.50;;;34.24;29.99
30073;BME280;16897;52.422;13.678;2023-07-08T12:30:51;101580.44;;;34.20;29.69
30073;BME280;16897;52.422;13.678;2023-07-08T12:34:52;101585.66;;;34.22;29.57
30073;BME280;16897;52.422;13.678;2023-07-08T12:38:55;101562.78;;;34.11;29.63
30073;BME280;16897;52.422;13.678;2023-07-08T12:42:58;101582.25;;;34.26;29.51
30073;BME280;16897;52.422;13.678;2023-07-08T12:47:03;101577.81;;;34.32;29.56
30073;BME280;16897;52.422;13.678;2023-07-08T12:51:06;101584.03;;;34.39;29.55
30073;BME280;16897;52.422;13.678;2023-07-08T12:55:09;101566.25;;;34.43;29.26
30073;BME280;16897;52.422;13.678;2023-07-08T12:59:17;101563.31;;;34.45;29.45
30073;BME280;16897;52.422;13.678;2023-07-08T13:03:22;101564.66;;;34.54;29.56
30073;BME280;16897;52.422;13.678;2023-07-08T13:11:35;101565.44;;;34.68;29.32
30073;BME280;16897;52.422;13.678;2023-07-08T13:15:40;101570.94;;;34.79;29.40
30073;BME280;16897;52.422;13.678;2023-07-08T13:19:43;101566.13;;;34.82;29.29
30073;BME280;16897;52.422;13.678;2023-07-08T13:23:45;101552.69;;;34.87;29.30
30073;BME280;16897;52.422;13.678;2023-07-08T13:28:00;101562.03;;;34.91;29.07
30073;BME280;16897;52.422;13.678;2023-07-08T13:32:05;101568.84;;;35.00;29.01
30073;BME280;16897;52.422;13.678;2023-07-08T13:36:06;101556.91;;;35.01;29.23
30073;BME280;16897;52.422;13.678;2023-07-08T13:40:10;101560.41;;;35.08;28.83
30073;BME280;16897;52.422;13.678;2023-07-08T13:44:12;101563.34;;;35.07;28.96
30073;BME280;16897;52.422;13.678;2023-07-08T13:48:34;101560.31;;;35.15;29.08
30073;BME280;16897;52.422;13.678;2023-07-08T13:52:38;101553.25;;;35.14;29.01
30073;BME280;16897;52.422;13.678;2023-07-08T13:56:39;101558.81;;;35.19;28.81
30073;BME280;16897;52.422;13.678;2023-07-08T14:00:41;101561.28;;;35.20;28.89
30073;BME280;16897;52.422;13.678;2023-07-08T14:04:43;101556.00;;;35.26;28.54
30073;BME280;16897;52.422;13.678;2023-07-08T14:08:45;101554.34;;;35.24;28.37
30073;BME280;16897;52.422;13.678;2023-07-08T14:12:47;101544.38;;;35.18;28.27
30073;BME280;16897;52.422;13.678;2023-07-08T14:16:50;101540.16;;;35.22;28.45
30073;BME280;16897;52.422;13.678;2023-07-08T14:20:52;101544.53;;;35.23;28.37
30073;BME280;16897;52.422;13.678;2023-07-08T14:24:55;101547.63;;;35.27;28.16
30073;BME280;16897;52.422;13.678;2023-07-08T14:28:57;101545.28;;;35.31;28.06
30073;BME280;16897;52.422;13.678;2023-07-08T14:32:59;101517.53;;;35.10;28.21
30073;BME280;16897;52.422;13.678;2023-07-08T14:37:01;101527.78;;;35.27;27.93
30073;BME280;16897;52.422;13.678;2023-07-08T14:41:03;101508.25;;;35.18;28.08
30073;BME280;16897;52.422;13.678;2023-07-08T14:45:07;101510.28;;;35.22;28.17
30073;BME280;16897;52.422;13.678;2023-07-08T14:49:15;101535.75;;;35.40;27.87
30073;BME280;16897;52.422;13.678;2023-07-08T14:53:17;101535.88;;;35.45;27.93
30073;BME280;16897;52.422;13.678;2023-07-08T14:57:25;101534.84;;;35.46;27.75
30073;BME280;16897;52.422;13.678;2023-07-08T15:01:31;101526.91;;;35.44;28.03
30073;BME280;16897;52.422;13.678;2023-07-08T15:05:33;101515.44;;;35.42;28.13
30073;BME280;16897;52.422;13.678;2023-07-08T15:09:34;101525.63;;;35.47;27.84
30073;BME280;16897;52.422;13.678;2023-07-08T15:13:36;101501.56;;;35.32;27.87
30073;BME280;16897;52.422;13.678;2023-07-08T15:17:37;101522.91;;;35.47;27.93
30073;BME280;16897;52.422;13.678;2023-07-08T15:21:39;101512.16;;;35.40;27.54
30073;BME280;16897;52.422;13.678;2023-07-08T15:25:43;101498.63;;;35.34;27.94
30073;BME280;16897;52.422;13.678;2023-07-08T15:29:45;101510.38;;;35.46;27.69
30073;BME280;16897;52.422;13.678;2023-07-08T15:33:46;101504.81;;;35.41;27.56
30073;BME280;16897;52.422;13.678;2023-07-08T15:37:48;101512.91;;;35.29;27.39
30073;BME280;16897;52.422;13.678;2023-07-08T15:41:49;101490.91;;;35.19;27.29
30073;BME280;16897;52.422;13.678;2023-07-08T15:45:50;101509.16;;;35.30;27.26
30073;BME280;16897;52.422;13.678;2023-07-08T15:49:52;101508.44;;;35.35;27.38
30073;BME280;16897;52.422;13.678;2023-07-08T15:53:53;101505.34;;;35.31;27.00
30073;BME280;16897;52.422;13.678;2023-07-08T15:57:58;101505.34;;;35.31;27.18
30073;BME280;16897;52.422;13.678;2023-07-08T16:02:04;101496.72;;;35.22;27.06
30073;BME280;16897;52.422;13.678;2023-07-08T16:06:15;101499.91;;;35.19;27.08
30073;BME280;16897;52.422;13.678;2023-07-08T16:10:16;101515.03;;;35.27;27.31
30073;BME280;16897;52.422;13.678;2023-07-08T16:14:18;101500.50;;;35.21;27.04
30073;BME280;16897;52.422;13.678;2023-07-08T16:18:20;101513.38;;;35.26;27.24
30073;BME280;16897;52.422;13.678;2023-07-08T16:22:21;101505.94;;;35.21;27.00
30073;BME280;16897;52.422;13.678;2023-07-08T16:26:23;101501.78;;;35.19;26.96
30073;BME280;16897;52.422;13.678;2023-07-08T16:30:25;101486.69;;;35.05;26.80
30073;BME280;16897;52.422;13.678;2023-07-08T16:34:27;101453.53;;;34.84;26.90
30073;BME280;16897;52.422;13.678;2023-07-08T16:38:29;101470.69;;;34.96;26.91
30073;BME280;16897;52.422;13.678;2023-07-08T16:42:30;101504.81;;;35.11;27.01
30073;BME280;16897;52.422;13.678;2023-07-08T16:46:31;101493.84;;;34.99;26.65
30073;BME280;16897;52.422;13.678;2023-07-08T16:50:33;101504.50;;;35.00;26.52
30073;BME280;16897;52.422;13.678;2023-07-08T16:54:35;101504.72;;;34.99;26.69
30073;BME280;16897;52.422;13.678;2023-07-08T16:58:38;101509.16;;;34.93;26.86
30073;BME280;16897;52.422;13.678;2023-07-08T17:02:40;101511.97;;;34.87;26.74
30073;BME280;16897;52.422;13.678;2023-07-08T17:06:42;101510.59;;;34.77;26.76
30073;BME280;16897;52.422;13.678;2023-07-08T17:10:43;101512.72;;;34.75;26.63
30073;BME280;16897;52.422;13.678;2023-07-08T17:14:45;101503.59;;;34.70;26.31
30073;BME280;16897;52.422;13.678;2023-07-08T17:18:47;101492.50;;;34.53;26.64
30073;BME280;16897;52.422;13.678;2023-07-08T17:22:51;101504.97;;;34.61;26.63
30073;BME280;16897;52.422;13.678;2023-07-08T17:26:53;101497.69;;;34.54;26.48
30073;BME280;16897;52.422;13.678;2023-07-08T17:30:54;101478.03;;;34.41;26.78
30073;BME280;16897;52.422;13.678;2023-07-08T17:34:56;101492.00;;;34.37;26.44
30073;BME280;16897;52.422;13.678;2023-07-08T17:38:57;101488.94;;;34.34;26.61
30073;BME280;16897;52.422;13.678;2023-07-08T17:42:59;101485.31;;;34.22;26.95
30073;BME280;16897;52.422;13.678;2023-07-08T17:47:01;101481.44;;;34.11;26.34
30073;BME280;16897;52.422;13.678;2023-07-08T17:51:03;101476.69;;;34.00;26.68
30073;BME280;16897;52.422;13.678;2023-07-08T17:55:05;101489.66;;;33.98;26.52
30073;BME280;16897;52.422;13.678;2023-07-08T17:59:09;101493.69;;;33.88;27.02
30073;BME280;16897;52.422;13.678;2023-07-08T18:03:13;101473.00;;;33.69;26.55
30073;BME280;16897;52.422;13.678;2023-07-08T18:07:15;101490.13;;;33.63;26.81
30073;BME280;16897;52.422;13.678;2023-07-08T18:11:19;101479.56;;;33.48;26.95
30073;BME280;16897;52.422;13.678;2023-07-08T18:15:23;101465.53;;;33.26;26.81
30073;BME280;16897;52.422;13.678;2023-07-08T18:19:25;101498.59;;;33.35;26.89
30073;BME280;16897;52.422;13.678;2023-07-08T18:23:29;101484.75;;;33.18;27.01
30073;BME280;16897;52.422;13.678;2023-07-08T18:27:32;101495.19;;;33.08;27.17
30073;BME280;16897;52.422;13.678;2023-07-08T18:31:34;101498.38;;;32.91;27.07
30073;BME280;16897;52.422;13.678;2023-07-08T18:35:44;101495.69;;;32.78;26.99
30073;BME280;16897;52.422;13.678;2023-07-08T18:39:46;101497.63;;;32.64;27.13
30073;BME280;16897;52.422;13.678;2023-07-08T18:43:48;101500.97;;;32.53;27.18
30073;BME280;16897;52.422;13.678;2023-07-08T18:47:50;101465.88;;;32.20;27.58
30073;BME280;16897;52.422;13.678;2023-07-08T18:51:51;101469.59;;;32.05;27.29
30073;BME280;16897;52.422;13.678;2023-07-08T18:55:53;101492.28;;;32.04;27.58
30073;BME280;16897;52.422;13.678;2023-07-08T19:00:01;101516.38;;;31.99;27.61
30073;BME280;16897;52.422;13.678;2023-07-08T19:04:03;101524.66;;;31.84;27.46
30073;BME280;16897;52.422;13.678;2023-07-08T19:08:09;101521.91;;;31.64;27.26
30073;BME280;16897;52.422;13.678;2023-07-08T19:12:10;101519.19;;;31.51;27.39
30073;BME280;16897;52.422;13.678;2023-07-08T19:16:13;101542.44;;;31.45;27.81
30073;BME280;16897;52.422;13.678;2023-07-08T19:20:22;101551.84;;;31.21;27.50
30073;BME280;16897;52.422;13.678;2023-07-08T19:24:24;101526.19;;;30.84;28.13
30073;BME280;16897;52.422;13.678;2023-07-08T19:28:26;101561.66;;;30.88;27.41
30073;BME280;16897;52.422;13.678;2023-07-08T19:32:27;101525.28;;;30.49;27.56
30073;BME280;16897;52.422;13.678;2023-07-08T19:36:28;101553.09;;;30.49;27.74
30073;BME280;16897;52.422;13.678;2023-07-08T19:40:32;101561.69;;;30.38;27.78
30073;BME280;16897;52.422;13.678;2023-07-08T19:44:33;101568.19;;;30.22;27.69
30073;BME280;16897;52.422;13.678;2023-07-08T19:48:35;101537.66;;;29.93;27.68
30073;BME280;16897;52.422;13.678;2023-07-08T19:52:40;101537.09;;;29.76;27.99
30073;BME280;16897;52.422;13.678;2023-07-08T19:56:42;101571.31;;;29.83;28.08
30073;BME280;16897;52.422;13.678;2023-07-08T20:00:45;101598.31;;;29.89;27.97
30073;BME280;16897;52.422;13.678;2023-07-08T20:04:50;101603.75;;;29.74;28.19
30073;BME280;16897;52.422;13.678;2023-07-08T20:08:58;101551.44;;;29.32;28.27
30073;BME280;16897;52.422;13.678;2023-07-08T20:12:59;101585.13;;;29.43;28.24
30073;BME280;16897;52.422;13.678;2023-07-08T20:17:01;101621.78;;;29.44;28.15
30073;BME280;16897;52.422;13.678;2023-07-08T20:21:03;101627.06;;;29.38;28.18
30073;BME280;16897;52.422;13.678;2023-07-08T20:25:05;101616.34;;;29.23;28.05
30073;BME280;16897;52.422;13.678;2023-07-08T20:29:12;101616.19;;;29.01;28.27
30073;BME280;16897;52.422;13.678;2023-07-08T20:33:15;101637.00;;;29.07;28.07
30073;BME280;16897;52.422;13.678;2023-07-08T20:37:17;101631.88;;;28.98;28.47
30073;BME280;16897;52.422;13.678;2023-07-08T20:41:19;101647.53;;;28.94;28.14
30073;BME280;16897;52.422;13.678;2023-07-08T20:45:31;101634.53;;;28.83;28.41
30073;BME280;16897;52.422;13.678;2023-07-08T20:49:32;101639.34;;;28.73;28.33
30073;BME280;16897;52.422;13.678;2023-07-08T20:53:34;101666.41;;;28.71;28.47
30073;BME280;16897;52.422;13.678;2023-07-08T20:57:36;101656.25;;;28.58;28.30
30073;BME280;16897;52.422;13.678;2023-07-08T21:01:38;101640.97;;;28.36;28.14
30073;BME280;16897;52.422;13.678;2023-07-08T21:05:39;101668.44;;;28.46;28.45
30073;BME280;16897;52.422;13.678;2023-07-08T21:09:41;101643.78;;;28.19;28.55
30073;BME280;16897;52.422;13.678;2023-07-08T21:13:43;101659.03;;;28.19;28.42
30073;BME280;16897;52.422;13.678;2023-07-08T21:17:45;101669.78;;;28.19;28.22
30073;BME280;16897;52.422;13.678;2023-07-08T21:21:46;101624.88;;;27.82;28.41
30073;BME280;16897;52.422;13.678;2023-07-08T21:25:50;101627.56;;;27.73;28.67
30073;BME280;16897;52.422;13.678;2023-07-08T21:29:52;101632.66;;;27.60;28.63
30073;BME280;16897;52.422;13.678;2023-07-08T21:33:53;101639.72;;;27.53;28.93
30073;BME280;16897;52.422;13.678;2023-07-08T21:38:00;101636.75;;;27.40;28.73
30073;BME280;16897;52.422;13.678;2023-07-08T21:42:02;101651.66;;;27.42;28.84
30073;BME280;16897;52.422;13.678;2023-07-08T21:46:04;101655.06;;;27.36;28.93
30073;BME280;16897;52.422;13.678;2023-07-08T21:50:08;101629.78;;;27.14;28.72